Grandview on Hudson, New York
Current Conditions -  °F | °C
As of 8:56 PM on Thursday 20 Nov 2014 (Local Time) from KHPN Reporting Station
Clear Clear  
Wind Chill: -5°   Ceiling: Unl
Heat Index:   Visibility: 10mi
Dew Point: -12°   Wind: 20mph
Humidity: 37%   Direction: 310°NW
Pressure: 29.93"   Gusts: 25mph
Location:  41.0938°N, 73.9254°W
Report Text: KHPN 210156Z 31017G22KT 10SM CLR 01/M12 A2993 RMK AO2 PK WND 27026/0108 SLP141 T00111122
Loading
Personal Weather Stations






























Interactive Weather Map New forecast layout! Learn more

10-Day Weather Forecast

Advertisements
Track Severe Weather on mobile